Nambe, New Mexico
Current Conditions -  °F | °C
As of 5:53 AM on Saturday 20 Dec 2014 (Local Time) from KSAF Reporting Station
Clear Clear  
Wind Chill: 12°   Ceiling: Unl
Heat Index: 24°   Visibility: 10mi
Dew Point: 16°   Wind: 14mph
Humidity: 71%   Direction: 340°NNW
Pressure: 30.1"   Gusts: NA
Location:  35.7017°N, 105.921°W
Report Text: KSAF 201253Z AUTO 34012KT 10SM CLR M04/M09 A3010 RMK AO2 SLP201 T10441089
Loading
Personal Weather Stations






























Interactive Weather Map New forecast layout! Learn more

10-Day Weather Forecast

Advertisements
Track Severe Weather on mobile